createdAt,value
2019-04-16T00:02:48.567Z,100956.00
2019-04-16T00:08:09.747Z,100952.98
2019-04-16T00:13:20.508Z,100941.81
2019-04-16T00:18:22.593Z,100937.57
2019-04-16T00:23:36.213Z,100923.91
2019-04-16T00:28:38.337Z,100918.58
2019-04-16T00:33:42.846Z,100914.31
2019-04-16T00:38:44.507Z,100909.45
2019-04-16T00:43:46.625Z,100904.76
2019-04-16T00:48:48.705Z,100906.88
2019-04-16T00:53:50.772Z,100904.00
2019-04-16T00:58:53.096Z,100906.25
2019-04-16T01:03:55.342Z,100905.80
2019-04-16T01:08:57.427Z,100901.81
2019-04-16T01:13:59.541Z,100903.12
2019-04-16T01:19:01.592Z,100900.36
2019-04-16T01:24:03.738Z,100903.27
2019-04-16T01:29:13.264Z,100896.83
2019-04-16T01:34:47.133Z,100901.37
2019-04-16T01:39:49.736Z,100898.33
2019-04-16T01:44:51.918Z,100892.16
2019-04-16T01:49:53.970Z,100896.02
2019-04-16T01:54:56.189Z,100886.75
2019-04-16T01:59:58.301Z,100893.27
2019-04-16T02:05:00.390Z,100898.39
2019-04-16T02:10:06.412Z,100897.44
2019-04-16T02:15:07.366Z,100897.61
2019-04-16T02:20:09.413Z,100887.97
2019-04-16T02:25:11.506Z,100899.33
2019-04-16T02:30:13.932Z,100897.50
2019-04-16T02:35:16.050Z,100905.69
2019-04-16T02:40:18.862Z,100909.14
2019-04-16T02:45:23.472Z,100904.87
2019-04-16T02:50:32.722Z,100900.08
2019-04-16T02:55:51.014Z,100893.23
2019-04-16T03:01:30.765Z,100894.34
2019-04-16T03:06:35.014Z,100897.63
2019-04-16T03:11:37.158Z,100894.96
2019-04-16T03:16:50.211Z,100892.20
2019-04-16T03:21:55.504Z,100885.41
2019-04-16T03:26:56.260Z,100888.39
2019-04-16T03:31:59.601Z,100882.09
2019-04-16T03:37:03.095Z,100888.31
2019-04-16T03:42:05.605Z,100886.92
2019-04-16T03:47:07.820Z,100882.62
2019-04-16T03:52:09.968Z,100889.23
2019-04-16T03:57:12.084Z,100889.06
2019-04-16T04:02:15.516Z,100892.58
2019-04-16T04:07:18.247Z,100895.74
2019-04-16T04:12:20.316Z,100893.89
2019-04-16T04:17:22.960Z,100889.41
2019-04-16T04:22:25.937Z,100887.30
2019-04-16T04:27:28.896Z,100890.92
2019-04-16T04:32:32.424Z,100887.48
2019-04-16T04:37:34.913Z,100896.00
2019-04-16T04:42:36.990Z,100894.70
2019-04-16T04:47:39.139Z,100893.01
2019-04-16T04:52:43.261Z,100896.56
2019-04-16T04:57:45.251Z,100894.42
2019-04-16T05:02:47.448Z,100888.45
2019-04-16T05:07:49.492Z,100882.69
2019-04-16T05:12:53.701Z,100880.78
2019-04-16T05:17:57.619Z,100885.48
2019-04-16T05:22:59.777Z,100883.06
2019-04-16T05:28:01.845Z,100886.03
2019-04-16T05:33:05.621Z,100889.41
2019-04-16T05:38:07.955Z,100895.37
2019-04-16T05:43:11.226Z,100892.10
2019-04-16T05:48:13.325Z,100894.63
2019-04-16T05:53:15.369Z,100896.16
2019-04-16T05:58:17.488Z,100898.28
2019-04-16T06:03:21.630Z,100895.52
2019-04-16T06:08:23.613Z,100904.48
2019-04-16T06:13:45.381Z,100906.92
2019-04-16T06:19:18.925Z,100899.98
2019-04-16T06:24:43.568Z,100910.61
2019-04-16T06:30:32.996Z,100910.47
2019-04-16T06:35:58.671Z,100916.53
2019-04-16T06:41:08.635Z,100912.30
2019-04-16T06:46:29.322Z,100904.19
2019-04-16T06:51:44.481Z,100906.66
2019-04-16T06:57:01.373Z,100915.89
2019-04-16T07:02:24.351Z,100905.14
2019-04-16T07:07:46.779Z,100886.06
2019-04-16T07:12:48.125Z,100877.52
2019-04-16T07:17:50.326Z,100882.05
2019-04-16T07:22:52.893Z,100879.54
2019-04-16T07:28:10.519Z,100889.07
2019-04-16T07:33:34.975Z,100889.84
2019-04-16T07:38:47.986Z,100883.06
2019-04-16T07:44:21.741Z,100877.70
2019-04-16T07:49:29.009Z,100886.03
2019-04-16T07:54:48.194Z,100878.01
2019-04-16T07:59:50.274Z,100880.17
2019-04-16T08:04:52.398Z,100873.94
2019-04-16T08:09:54.522Z,100882.02
2019-04-16T08:14:56.602Z,100878.00
2019-04-16T08:19:59.007Z,100872.90
2019-04-16T08:25:03.255Z,100873.41
2019-04-16T08:30:09.841Z,100874.84
2019-04-16T08:35:12.098Z,100869.30
2019-04-16T08:40:14.200Z,100872.34
2019-04-16T08:45:20.632Z,100873.82
2019-04-16T08:50:25.851Z,100878.64
2019-04-16T08:55:26.636Z,100868.53
2019-04-16T09:00:28.882Z,100877.48
2019-04-16T09:05:33.398Z,100871.09
2019-04-16T09:10:35.787Z,100872.20
2019-04-16T09:15:38.399Z,100882.09
2019-04-16T09:20:41.890Z,100877.72
2019-04-16T09:26:11.346Z,100874.69
2019-04-16T09:31:22.078Z,100869.19
2019-04-16T09:36:45.051Z,100876.48
2019-04-16T09:41:48.799Z,100876.95
2019-04-16T09:46:53.078Z,100869.07
2019-04-16T09:51:55.188Z,100877.20
2019-04-16T09:56:59.766Z,100866.57
2019-04-16T10:02:07.456Z,100870.30
2019-04-16T10:07:09.645Z,100876.02
2019-04-16T10:12:11.691Z,100884.15
2019-04-16T10:17:13.853Z,100867.87
2019-04-16T10:22:17.322Z,100873.02
2019-04-16T10:27:31.235Z,100853.47
2019-04-16T10:32:31.379Z,100851.55
2019-04-16T10:37:33.507Z,100848.16
2019-04-16T10:43:01.000Z,100854.11
2019-04-16T10:48:32.121Z,100849.00
2019-04-16T10:53:49.699Z,100836.59
2019-04-16T10:59:26.691Z,100844.55
2019-04-16T11:04:51.330Z,100839.75
2019-04-16T11:09:53.402Z,100835.09
2019-04-16T11:14:55.446Z,100828.47
2019-04-16T11:20:00.084Z,100832.27
2019-04-16T11:25:01.707Z,100818.21
2019-04-16T11:30:06.225Z,100813.91
2019-04-16T11:35:08.489Z,100812.42
2019-04-16T11:40:10.806Z,100820.88
2019-04-16T11:45:14.282Z,100808.92
2019-04-16T11:50:16.435Z,100815.70
2019-04-16T11:55:18.496Z,100817.23
2019-04-16T12:00:28.738Z,100811.94
2019-04-16T12:05:35.269Z,100818.05
2019-04-16T12:10:59.735Z,100808.62
2019-04-16T12:16:33.348Z,100811.42
2019-04-16T12:21:45.967Z,100809.11
2019-04-16T12:27:16.538Z,100810.12
2019-04-16T12:32:44.208Z,100802.82
2019-04-16T12:38:13.161Z,100791.91
2019-04-16T12:43:20.670Z,100789.92
2019-04-16T12:48:48.463Z,100791.58
2019-04-16T12:54:03.284Z,100783.95
2019-04-16T12:59:12.588Z,100794.22
2019-04-16T13:04:34.289Z,100799.53
2019-04-16T13:09:47.576Z,100789.91
2019-04-16T13:15:14.802Z,100782.95
2019-04-16T13:20:45.890Z,100785.46
2019-04-16T13:26:03.220Z,100785.11
2019-04-16T13:31:05.305Z,100779.48
2019-04-16T13:36:07.397Z,100782.63
2019-04-16T13:41:09.496Z,100771.73
2019-04-16T13:46:11.559Z,100767.91
2019-04-16T13:51:18.836Z,100760.31
2019-04-16T13:56:29.502Z,100754.16
2019-04-16T14:01:35.449Z,100761.96
2019-04-16T14:06:37.528Z,100756.34
2019-04-16T14:11:39.646Z,100760.14
2019-04-16T14:16:43.812Z,100765.92
2019-04-16T14:21:45.738Z,100762.75
2019-04-16T14:26:47.887Z,100761.61
2019-04-16T14:31:52.317Z,100754.69
2019-04-16T14:36:57.052Z,100758.81
2019-04-16T14:41:58.469Z,100764.76
2019-04-16T14:47:01.978Z,100766.25
2019-04-16T14:52:04.433Z,100766.92
2019-04-16T14:57:10.185Z,100762.44
2019-04-16T15:02:29.330Z,100769.56
2019-04-16T15:07:38.314Z,100771.83
2019-04-16T15:13:02.900Z,100764.88
2019-04-16T15:18:09.517Z,100776.81
2019-04-16T15:23:31.233Z,100773.50
2019-04-16T15:28:41.114Z,100769.67
2019-04-16T15:33:57.931Z,100786.22
2019-04-16T15:39:19.023Z,100786.66
2019-04-16T15:44:32.180Z,100774.57
2019-04-16T15:49:55.657Z,100781.66
2019-04-16T15:55:14.415Z,100774.24
2019-04-16T16:00:45.607Z,100783.83
2019-04-16T16:05:58.221Z,100784.02
2019-04-16T16:11:02.198Z,100795.73
2019-04-16T16:16:04.276Z,100784.78
2019-04-16T16:21:06.464Z,100795.02
2019-04-16T16:26:08.651Z,100800.30
2019-04-16T16:31:10.729Z,100807.19
2019-04-16T16:36:12.838Z,100806.19
2019-04-16T16:41:14.952Z,100810.15
2019-04-16T16:46:29.099Z,100807.30
2019-04-16T16:51:31.271Z,100803.86
2019-04-16T16:56:46.085Z,100804.33
2019-04-16T17:02:10.558Z,100820.36
2019-04-16T17:07:17.527Z,100813.33
2019-04-16T17:12:17.864Z,100818.08
2019-04-16T17:17:19.981Z,100819.86
2019-04-16T17:22:22.097Z,100825.11
2019-04-16T17:27:24.199Z,100828.00
2019-04-16T17:32:26.328Z,100831.62
2019-04-16T17:37:28.895Z,100830.06
2019-04-16T17:42:38.452Z,100828.41
2019-04-16T17:48:09.135Z,100842.23
2019-04-16T17:53:33.359Z,100836.73
2019-04-16T17:58:44.409Z,100850.84
2019-04-16T18:03:53.305Z,100855.55
2019-04-16T18:09:09.395Z,100859.02
2019-04-16T18:14:33.788Z,100862.23
2019-04-16T18:20:12.956Z,100871.55
2019-04-16T18:25:35.209Z,100881.31
2019-04-16T18:30:49.222Z,100885.37
2019-04-16T18:36:14.138Z,100896.44
2019-04-16T18:41:35.850Z,100888.06
2019-04-16T18:46:57.552Z,100905.84
2019-04-16T18:52:01.754Z,100908.77
2019-04-16T18:57:03.910Z,100923.52
2019-04-16T19:02:08.772Z,100923.05
2019-04-16T19:07:10.162Z,100934.70
2019-04-16T19:12:12.250Z,100942.67
2019-04-16T19:17:16.670Z,100952.47
2019-04-16T19:22:18.323Z,100955.17
2019-04-16T19:27:20.371Z,100955.08
2019-04-16T19:32:24.830Z,100954.55
2019-04-16T19:37:26.483Z,100963.47
2019-04-16T19:42:29.575Z,100968.50
2019-04-16T19:47:35.175Z,100970.66
2019-04-16T19:52:35.879Z,100973.13
2019-04-16T19:57:37.949Z,100980.42
2019-04-16T20:02:40.048Z,100981.98
2019-04-16T20:07:42.108Z,100984.62
2019-04-16T20:12:44.148Z,100992.43
2019-04-16T20:17:46.231Z,100992.55
2019-04-16T20:22:48.342Z,100991.66
2019-04-16T20:27:50.572Z,100995.34
2019-04-16T20:32:52.681Z,101009.72
2019-04-16T20:37:55.151Z,101015.19
2019-04-16T20:42:57.942Z,101011.37
2019-04-16T20:48:00.010Z,101010.67
2019-04-16T20:53:06.249Z,101010.91
2019-04-16T20:58:05.996Z,101014.98
2019-04-16T21:03:21.501Z,101016.21
2019-04-16T21:08:12.068Z,101019.89
2019-04-16T21:13:16.277Z,101015.42
2019-04-16T21:18:18.254Z,101026.94
2019-04-16T21:23:20.349Z,101020.27
2019-04-16T21:28:50.825Z,101022.41
2019-04-16T21:34:01.591Z,101025.56
2019-04-16T21:39:09.096Z,101030.63
2019-04-16T21:44:13.118Z,101031.70
2019-04-16T21:49:15.256Z,101039.59
2019-04-16T21:54:17.333Z,101038.14
2019-04-16T21:59:21.349Z,101041.52
2019-04-16T22:04:23.404Z,101043.05
2019-04-16T22:09:25.457Z,101042.95
2019-04-16T22:14:27.498Z,101047.84
2019-04-16T22:19:29.763Z,101048.81
2019-04-16T22:24:31.823Z,101055.16
2019-04-16T22:29:33.909Z,101051.58
2019-04-16T22:34:36.074Z,101058.27
2019-04-16T22:39:50.841Z,101052.17
2019-04-16T22:45:10.056Z,101054.83
2019-04-16T22:50:17.013Z,101054.69
2019-04-16T22:55:16.194Z,101058.86
2019-04-16T23:00:27.339Z,101062.06
2019-04-16T23:05:30.817Z,101063.02
2019-04-16T23:10:33.364Z,101056.94
2019-04-16T23:15:35.440Z,101067.66
2019-04-16T23:20:39.432Z,101064.81
2019-04-16T23:25:41.510Z,101064.30
2019-04-16T23:30:43.630Z,101065.59
2019-04-16T23:35:45.741Z,101071.73
2019-04-16T23:40:47.834Z,101067.66
2019-04-16T23:46:08.225Z,101069.89
2019-04-16T23:51:28.683Z,101065.22
2019-04-16T23:56:34.453Z,101073.48
